Time;durP1;ratioP1;P1;durP2;ratioP2;P2;SDS_P1;SDS_P2;PMS_P1;PMS_P2;Temp;Humidity;BMP_temperature;BMP_pressure;BME280_temperature;BME280_humidity;BME280_pressure;Samples;Min_cycle;Max_cycle;Signal;HPM_P1;HPM_P2
2023/11/26 00:01:36;;;;;;;3.55;1.60;;;;;;;12.03;47.20;101302.25;5078205;28;20028;-58
2023/11/26 00:04:01;;;;;;;5.45;1.58;;;;;;;11.97;47.07;101308.16;5097704;28;20082;-59
2023/11/26 00:06:27;;;;;;;7.65;1.67;;;;;;;11.92;47.13;101302.31;5075821;28;20399;-58
2023/11/26 00:08:53;;;;;;;4.90;2.08;;;;;;;11.88;47.68;101308.91;5093918;28;20028;-58
2023/11/26 00:11:18;;;;;;;3.75;1.60;;;;;;;11.83;47.27;101304.91;5075316;28;20028;-58
2023/11/26 00:13:45;;;;;;;9.52;1.80;;;;;;;11.80;47.19;101306.00;5075756;28;20035;-58
2023/11/26 00:16:10;;;;;;;7.20;1.65;;;;;;;11.75;47.01;101300.16;5075785;28;20019;-59
2023/11/26 00:18:37;;;;;;;8.68;2.10;;;;;;;11.73;47.02;101310.16;5076266;28;20522;-59
2023/11/26 00:21:03;;;;;;;4.72;1.27;;;;;;;11.69;46.40;101314.09;5076320;28;20545;-59
2023/11/26 00:23:28;;;;;;;8.43;2.15;;;;;;;11.66;47.66;101319.66;5075913;28;20115;-58
2023/11/26 00:25:54;;;;;;;7.88;2.03;;;;;;;11.64;47.54;101316.25;5094000;28;20039;-59
2023/11/26 00:28:19;;;;;;;7.85;1.52;;;;;;;11.63;46.88;101319.91;5093974;28;20055;-59
2023/11/26 00:30:44;;;;;;;3.95;2.03;;;;;;;11.61;47.45;101311.13;5093816;28;20561;-58
2023/11/26 00:33:10;;;;;;;4.75;1.83;;;;;;;11.59;47.45;101318.44;5075817;28;20028;-59
2023/11/26 00:35:35;;;;;;;8.65;2.67;;;;;;;11.56;47.25;101314.19;5058924;28;20399;-59
2023/11/26 00:38:00;;;;;;;4.22;2.55;;;;;;;11.56;46.94;101313.31;5093789;28;20036;-58
2023/11/26 00:40:26;;;;;;;8.57;2.28;;;;;;;11.54;47.30;101315.28;5075848;28;20032;-59
2023/11/26 00:42:51;;;;;;;6.03;1.98;;;;;;;11.55;46.78;101322.34;5093632;28;20111;-59
2023/11/26 00:45:16;;;;;;;5.60;1.98;;;;;;;11.54;47.40;101317.97;5075212;28;20489;-59
2023/11/26 00:47:42;;;;;;;11.35;2.30;;;;;;;11.53;47.01;101313.59;5058854;28;20035;-59
2023/11/26 00:50:08;;;;;;;8.95;2.08;;;;;;;11.50;47.55;101309.28;5075383;28;20066;-59
2023/11/26 00:52:34;;;;;;;5.55;2.05;;;;;;;11.58;47.89;101324.81;5093459;28;20031;-59
2023/11/26 00:54:59;;;;;;;10.05;2.25;;;;;;;11.59;47.84;101323.81;5075024;28;20123;-59
2023/11/26 00:57:26;;;;;;;8.10;2.30;;;;;;;11.60;47.65;101321.00;5093616;28;20455;-59
2023/11/26 00:59:52;;;;;;;9.77;2.33;;;;;;;11.60;47.96;101325.53;5075262;28;20024;-59
2023/11/26 01:02:19;;;;;;;11.43;2.53;;;;;;;11.65;47.20;101331.34;5095242;28;20043;-59
2023/11/26 01:04:44;;;;;;;8.85;2.85;;;;;;;11.67;48.20;101326.72;5078612;28;20043;-58
2023/11/26 01:07:11;;;;;;;6.28;2.22;;;;;;;11.70;47.42;101325.69;5095613;28;20028;-59
2023/11/26 01:09:37;;;;;;;11.68;2.88;;;;;;;11.69;47.29;101332.88;5078432;28;20052;-58
2023/11/26 01:12:03;;;;;;;6.50;2.35;;;;;;;11.70;48.13;101331.88;5113599;28;20055;-58
2023/11/26 01:14:29;;;;;;;7.53;3.42;;;;;;;11.71;47.47;101328.22;5113454;28;20036;-59
2023/11/26 01:16:54;;;;;;;11.82;3.00;;;;;;;11.73;47.32;101330.75;5095319;28;20384;-59
2023/11/26 01:19:20;;;;;;;7.50;2.45;;;;;;;11.72;47.54;101324.56;5095388;28;20027;-58
2023/11/26 01:21:45;;;;;;;6.00;2.75;;;;;;;11.72;47.37;101335.31;5095097;28;20560;-59
2023/11/26 01:24:11;;;;;;;6.07;4.20;;;;;;;11.72;47.71;101331.75;5113046;28;20027;-59
2023/11/26 01:26:37;;;;;;;11.88;2.58;;;;;;;11.69;47.08;101324.81;5113338;28;20058;-59
2023/11/26 01:29:02;;;;;;;5.00;2.88;;;;;;;11.70;48.21;101325.69;5095063;28;20081;-59
2023/11/26 01:31:27;;;;;;;6.85;2.58;;;;;;;11.67;47.22;101334.75;5059172;28;20031;-59
2023/11/26 01:33:53;;;;;;;8.43;3.08;;;;;;;11.65;47.75;101328.69;5112974;28;20549;-59
2023/11/26 01:36:18;;;;;;;11.23;3.10;;;;;;;11.62;47.48;101323.56;5095136;28;20043;-59
2023/11/26 01:38:44;;;;;;;9.07;2.90;;;;;;;11.58;47.73;101322.97;5113689;28;20406;-58
2023/11/26 01:41:09;;;;;;;4.93;2.13;;;;;;;11.58;47.87;101335.53;5095288;28;20083;-59
2023/11/26 01:43:35;;;;;;;7.50;2.40;;;;;;;11.55;47.80;101315.16;5094881;28;20035;-59
2023/11/26 01:46:05;;;;;;;11.85;3.75;;;;;;;11.56;48.10;101318.69;5112284;28;20031;-59
2023/11/26 01:48:31;;;;;;;8.80;3.15;;;;;;;11.55;47.55;101317.84;5095048;28;20046;-59
2023/11/26 01:50:56;;;;;;;15.43;2.92;;;;;;;11.57;47.79;101323.94;5078214;28;20398;-59
2023/11/26 01:53:22;;;;;;;6.57;2.80;;;;;;;11.55;47.35;101315.16;5077759;28;20042;-59
2023/11/26 01:55:47;;;;;;;10.98;2.45;;;;;;;11.58;47.91;101322.13;5095665;28;20028;-59
2023/11/26 01:58:13;;;;;;;14.77;3.92;;;;;;;11.59;47.77;101329.16;5077929;28;20022;-58
2023/11/26 02:00:39;;;;;;;7.93;2.95;;;;;;;11.60;48.19;101330.88;5061371;28;20548;-59
2023/11/26 02:03:06;;;;;;;8.07;3.08;;;;;;;11.61;48.80;101336.13;5094878;28;20024;-59
2023/11/26 02:05:32;;;;;;;7.50;2.53;;;;;;;11.61;48.09;101332.59;5113199;28;20064;-59
2023/11/26 02:07:57;;;;;;;5.80;3.17;;;;;;;11.60;47.75;101333.56;5077962;28;20024;-58
2023/11/26 02:10:23;;;;;;;9.98;3.63;;;;;;;11.58;47.53;101319.44;5093923;28;20026;-59
2023/11/26 02:13:05;;;;;;;10.63;2.67;;;;;;;11.64;48.56;101337.72;5113302;28;20485;-59
2023/11/26 02:15:32;;;;;;;5.00;2.70;;;;;;;11.63;47.57;101336.00;5095235;28;20031;-59
2023/11/26 02:17:57;;;;;;;7.90;2.70;;;;;;;11.58;48.20;101327.47;5095992;28;20027;-58
2023/11/26 02:20:23;;;;;;;11.68;2.80;;;;;;;11.61;48.45;101344.16;5096021;28;20050;-58
2023/11/26 02:22:48;;;;;;;9.95;2.53;;;;;;;11.61;48.79;101344.16;5113735;28;20039;-58
2023/11/26 02:25:14;;;;;;;10.68;2.55;;;;;;;11.62;48.56;101342.34;5113802;28;20123;-58
2023/11/26 02:27:39;;;;;;;8.38;3.05;;;;;;;11.60;48.17;101341.63;5095154;28;20431;-58
2023/11/26 02:30:09;;;;;;;8.10;2.78;;;;;;;11.61;48.08;101346.03;5094841;28;20039;-58
2023/11/26 02:32:35;;;;;;;8.32;2.92;;;;;;;11.60;48.55;101346.97;5074563;28;20036;-58
2023/11/26 02:35:01;;;;;;;9.43;3.30;;;;;;;11.58;48.31;101347.13;5077384;28;20032;-58
2023/11/26 02:37:26;;;;;;;5.50;2.60;;;;;;;11.60;48.16;101352.34;5078120;28;20108;-58
2023/11/26 02:39:52;;;;;;;7.45;2.85;;;;;;;11.60;47.74;101346.97;5078605;28;20036;-58
2023/11/26 02:42:18;;;;;;;7.15;2.78;;;;;;;11.56;48.03;101345.50;5079924;28;20044;-58
2023/11/26 02:44:43;;;;;;;11.57;3.38;;;;;;;11.55;48.19;101349.19;5062817;28;20068;-58
2023/11/26 02:47:08;;;;;;;8.60;3.35;;;;;;;11.52;48.93;101352.13;5079478;28;20050;-58
2023/11/26 02:49:35;;;;;;;8.27;2.90;;;;;;;11.49;47.95;101349.66;5079881;28;20042;-58
2023/11/26 02:52:01;;;;;;;8.55;3.70;;;;;;;11.46;47.86;101344.53;5063050;28;20036;-58
2023/11/26 02:54:27;;;;;;;8.73;3.40;;;;;;;11.46;48.23;101344.53;5097631;28;20503;-58
2023/11/26 02:56:52;;;;;;;11.75;3.08;;;;;;;11.44;48.10;101341.16;5097809;28;20036;-59
2023/11/26 02:59:17;;;;;;;13.35;3.83;;;;;;;11.44;48.53;101335.78;5097907;28;20161;-58
2023/11/26 03:01:43;;;;;;;5.47;3.42;;;;;;;11.46;48.17;101345.41;5078205;28;20169;-58
2023/11/26 03:04:09;;;;;;;14.23;3.72;;;;;;;11.47;48.94;101340.91;5077727;28;20107;-58
2023/11/26 03:06:35;;;;;;;9.73;3.22;;;;;;;11.45;48.41;101337.47;5095693;28;20043;-58
2023/11/26 03:09:10;;;;;;;11.15;4.13;;;;;;;11.41;48.41;101341.38;5077861;28;20032;-58
2023/11/26 03:14:19;;;;;;;9.00;3.17;;;;;;;11.39;48.05;101343.34;5096223;28;20042;-58
2023/11/26 03:16:45;;;;;;;9.05;3.65;;;;;;;11.39;47.99;101343.34;5077222;28;20118;-58
2023/11/26 03:19:12;;;;;;;12.63;3.80;;;;;;;11.38;48.96;101350.53;5095288;28;20154;-58
2023/11/26 03:21:43;;;;;;;8.90;3.53;;;;;;;11.37;48.11;101339.91;5095110;28;20043;-58
2023/11/26 03:24:08;;;;;;;10.98;3.88;;;;;;;11.39;48.72;101349.53;5077547;28;20035;-58
2023/11/26 03:26:36;;;;;;;9.18;3.05;;;;;;;11.40;48.07;101351.25;5095163;28;20194;-58
2023/11/26 03:29:02;;;;;;;5.95;3.08;;;;;;;11.44;48.47;101351.88;5095054;28;20055;-58
2023/11/26 03:31:30;;;;;;;8.80;3.42;;;;;;;11.46;48.45;101348.09;5094973;28;20495;-58
2023/11/26 03:33:56;;;;;;;9.75;3.30;;;;;;;11.45;48.24;101342.84;5094922;28;20036;-58
2023/11/26 03:36:22;;;;;;;10.30;3.60;;;;;;;11.50;49.05;101346.03;5095051;28;20137;-58
2023/11/26 03:38:47;;;;;;;9.73;3.85;;;;;;;11.54;48.92;101347.47;5076760;28;20484;-58
2023/11/26 03:41:13;;;;;;;10.30;3.00;;;;;;;11.55;49.15;101349.19;5060530;28;20050;-58
2023/11/26 03:43:38;;;;;;;12.02;3.40;;;;;;;11.58;48.96;101348.94;5094538;28;20032;-58
2023/11/26 03:46:04;;;;;;;5.82;3.45;;;;;;;11.60;49.31;101352.34;5094425;28;20028;-58
2023/11/26 03:48:29;;;;;;;11.27;3.58;;;;;;;11.62;49.06;101356.63;5094703;28;20480;-58
2023/11/26 03:50:54;;;;;;;11.18;4.15;;;;;;;11.62;48.66;101345.88;5076525;28;20036;-58
2023/11/26 03:53:20;;;;;;;8.02;3.00;;;;;;;11.67;48.86;101340.13;5094267;28;20074;-58
2023/11/26 03:55:46;;;;;;;4.93;2.70;;;;;;;11.66;48.47;101342.00;5094595;28;20074;-58
2023/11/26 03:58:11;;;;;;;8.77;3.95;;;;;;;11.70;48.43;101350.66;5094492;28;20032;-58
2023/11/26 04:00:38;;;;;;;19.77;3.55;;;;;;;11.71;49.10;101336.28;5094346;28;20061;-59
2023/11/26 04:03:03;;;;;;;7.85;3.72;;;;;;;11.73;49.77;101336.13;5094291;28;20068;-58
2023/11/26 04:05:28;;;;;;;8.98;3.42;;;;;;;11.76;49.00;101336.75;5076413;28;20052;-58
2023/11/26 04:07:54;;;;;;;15.52;4.13;;;;;;;11.77;49.59;101337.59;5094297;28;20080;-58
2023/11/26 04:10:19;;;;;;;4.38;2.88;;;;;;;11.77;48.87;101341.16;5076218;28;20039;-58
2023/11/26 04:12:44;;;;;;;9.07;3.85;;;;;;;11.79;49.77;101346.38;5076189;28;20027;-58
2023/11/26 04:15:11;;;;;;;11.20;4.60;;;;;;;11.80;48.63;101343.59;5075845;28;20032;-58
2023/11/26 04:17:36;;;;;;;4.30;3.30;;;;;;;11.82;49.16;101346.13;5094025;28;20035;-58
2023/11/26 04:20:05;;;;;;;8.98;3.80;;;;;;;11.80;49.27;101346.28;5075886;28;20032;-58
2023/11/26 04:22:32;;;;;;;11.85;4.22;;;;;;;11.84;49.13;101350.41;5093974;28;20032;-58
2023/11/26 04:24:58;;;;;;;9.82;4.18;;;;;;;11.84;48.36;101352.22;5076044;28;20081;-58
2023/11/26 04:27:24;;;;;;;12.27;4.15;;;;;;;11.86;49.49;101356.50;5094081;28;20089;-58
2023/11/26 04:29:49;;;;;;;20.77;4.43;;;;;;;11.86;49.54;101361.03;5078743;28;20028;-58
2023/11/26 04:32:15;;;;;;;11.30;5.45;;;;;;;11.88;48.57;101357.22;5096078;28;20037;-58
2023/11/26 04:34:41;;;;;;;14.95;4.22;;;;;;;11.87;49.59;101351.97;5078080;28;20047;-57
2023/11/26 04:37:11;;;;;;;11.35;4.47;;;;;;;11.90;49.11;101354.41;5093970;28;20024;-58
2023/11/26 04:39:37;;;;;;;13.85;4.47;;;;;;;11.92;48.86;101358.69;5076535;28;20082;-58
2023/11/26 04:42:03;;;;;;;9.38;4.75;;;;;;;11.96;49.22;101364.66;5075122;28;20029;-58
2023/11/26 04:44:28;;;;;;;14.50;5.30;;;;;;;11.98;50.11;101366.22;5092530;28;20522;-58
2023/11/26 04:46:54;;;;;;;10.68;4.60;;;;;;;11.99;49.99;101365.28;5075420;28;20036;-58
2023/11/26 04:49:19;;;;;;;12.40;4.97;;;;;;;12.01;50.09;101367.81;5075272;28;20032;-58
2023/11/26 04:51:45;;;;;;;15.93;5.53;;;;;;;12.05;50.06;101372.81;5093535;28;20052;-58
2023/11/26 04:54:15;;;;;;;16.92;5.40;;;;;;;12.03;49.51;101361.34;5064740;28;20123;-58
2023/11/26 04:56:41;;;;;;;9.60;4.65;;;;;;;12.08;49.50;101361.84;5055866;28;20036;-58
2023/11/26 04:59:07;;;;;;;10.55;5.30;;;;;;;12.10;49.79;101356.31;5055023;28;20055;-58
2023/11/26 05:01:34;;;;;;;15.13;6.45;;;;;;;12.14;49.94;101361.31;5055315;28;20032;-58
2023/11/26 05:04:00;;;;;;;17.50;5.65;;;;;;;12.17;49.42;101366.44;5055477;28;20039;-58
2023/11/26 05:06:26;;;;;;;9.70;5.10;;;;;;;12.17;50.17;101361.06;5055177;28;20412;-58
2023/11/26 05:08:51;;;;;;;17.15;6.03;;;;;;;12.21;49.44;101370.59;5055169;28;20527;-58
2023/11/26 05:11:16;;;;;;;16.73;6.00;;;;;;;12.22;49.21;101368.75;5091643;28;20149;-58
2023/11/26 05:13:42;;;;;;;14.98;6.97;;;;;;;12.25;49.79;101366.66;5074354;28;20076;-58
2023/11/26 05:16:08;;;;;;;13.65;6.15;;;;;;;12.30;49.08;101373.47;5092076;28;20036;-58
2023/11/26 05:18:33;;;;;;;14.40;5.90;;;;;;;12.28;49.87;101366.41;5092607;28;20044;-59
2023/11/26 05:20:59;;;;;;;15.30;6.55;;;;;;;12.28;49.56;101363.72;5092994;28;20036;-58
2023/11/26 05:23:24;;;;;;;13.82;6.32;;;;;;;12.34;49.83;101364.22;5092955;28;20043;-58
2023/11/26 05:25:52;;;;;;;14.25;6.85;;;;;;;12.36;50.49;101367.63;5058126;28;20047;-58
2023/11/26 05:28:17;;;;;;;12.65;5.68;;;;;;;12.34;49.68;101356.16;5075507;28;20039;-58
2023/11/26 05:30:43;;;;;;;17.33;6.03;;;;;;;12.37;49.45;101363.97;5093027;28;20039;-58
2023/11/26 05:33:08;;;;;;;18.55;6.55;;;;;;;12.41;49.55;101365.38;5075054;28;20032;-58
2023/11/26 05:35:34;;;;;;;16.15;5.63;;;;;;;12.44;49.85;101365.13;5074850;28;20047;-58
2023/11/26 05:37:59;;;;;;;17.48;7.70;;;;;;;12.45;49.31;101365.00;5092782;28;20496;-58
2023/11/26 05:40:25;;;;;;;16.98;6.72;;;;;;;12.46;50.02;101363.16;5074974;28;20039;-58
2023/11/26 05:42:51;;;;;;;16.20;6.78;;;;;;;12.46;49.22;101364.03;5074639;28;20162;-58
2023/11/26 05:45:16;;;;;;;15.32;6.47;;;;;;;12.50;49.78;101370.00;5074994;28;20113;-58
2023/11/26 05:47:42;;;;;;;19.33;6.05;;;;;;;12.52;49.87;101362.66;5074965;28;20101;-58
2023/11/26 05:50:07;;;;;;;14.50;6.40;;;;;;;12.54;50.45;101366.06;5074532;28;20040;-58
2023/11/26 05:52:33;;;;;;;23.25;6.53;;;;;;;12.56;49.31;101369.50;5092627;28;20044;-60
2023/11/26 05:54:59;;;;;;;18.60;7.03;;;;;;;12.56;49.94;101364.13;5074521;28;20499;-59
2023/11/26 05:57:24;;;;;;;16.02;6.85;;;;;;;12.56;49.71;101364.13;5074832;28;20028;-58
2023/11/26 05:59:49;;;;;;;17.88;7.07;;;;;;;12.60;50.34;101370.94;5074760;28;20028;-58
2023/11/26 06:02:15;;;;;;;14.50;6.00;;;;;;;12.60;49.32;101368.25;5092713;28;20028;-58
2023/11/26 06:04:41;;;;;;;15.93;7.15;;;;;;;12.61;49.19;101370.81;5092672;28;20106;-58
2023/11/26 06:07:08;;;;;;;14.48;6.03;;;;;;;12.60;49.32;101371.78;5074968;28;20035;-58
2023/11/26 06:09:34;;;;;;;12.30;5.78;;;;;;;12.62;49.82;101375.19;5059789;28;20069;-58
2023/11/26 06:11:59;;;;;;;13.27;6.65;;;;;;;12.61;50.44;101364.59;5096511;28;20020;-58
2023/11/26 06:14:24;;;;;;;12.85;6.05;;;;;;;12.65;49.20;101368.69;5096249;28;20099;-58
2023/11/26 06:16:50;;;;;;;13.90;6.90;;;;;;;12.67;50.11;101366.75;5078777;28;20016;-58
2023/11/26 06:19:16;;;;;;;19.63;6.50;;;;;;;12.68;49.42;101363.91;5044818;28;20395;-58
2023/11/26 06:21:42;;;;;;;14.35;7.03;;;;;;;12.67;50.88;101369.44;5096597;28;20024;-58
2023/11/26 06:24:09;;;;;;;16.02;6.43;;;;;;;12.70;49.36;101372.69;5078444;28;20035;-58
2023/11/26 06:26:35;;;;;;;16.92;7.88;;;;;;;12.70;49.64;101374.56;5096462;28;20031;-58
2023/11/26 06:29:00;;;;;;;15.82;6.47;;;;;;;12.71;50.03;101378.94;5078325;28;20028;-58
2023/11/26 06:31:25;;;;;;;13.25;6.25;;;;;;;12.71;49.42;101374.41;5061345;28;20034;-58
2023/11/26 06:33:51;;;;;;;22.00;6.70;;;;;;;12.71;49.95;101379.78;5078184;28;20521;-58
2023/11/26 06:36:22;;;;;;;16.33;6.68;;;;;;;12.73;50.62;101377.00;5061446;28;20034;-58
2023/11/26 06:38:48;;;;;;;13.38;6.80;;;;;;;12.73;50.05;101371.63;5079083;28;20044;-58
2023/11/26 06:41:24;;;;;;;14.50;7.20;;;;;;;12.73;49.55;101374.31;5079707;28;20479;-58
2023/11/26 06:43:53;;;;;;;15.45;7.10;;;;;;;12.70;49.96;101371.88;5079460;28;20044;-58
2023/11/26 06:46:20;;;;;;;14.32;6.72;;;;;;;12.75;50.48;101380.41;5082322;28;20035;-58
2023/11/26 06:48:45;;;;;;;17.42;6.40;;;;;;;12.73;49.99;101377.81;5099624;28;20036;-59
2023/11/26 06:51:14;;;;;;;16.20;7.32;;;;;;;12.75;50.50;101375.88;5063532;28;20438;-57
2023/11/26 06:53:40;;;;;;;18.98;7.43;;;;;;;12.76;49.97;101376.72;5063389;28;20539;-58
2023/11/26 06:56:06;;;;;;;20.48;6.82;;;;;;;12.80;50.30;101378.16;5097949;28;20067;-58
2023/11/26 06:58:39;;;;;;;15.77;7.13;;;;;;;12.81;49.50;101375.34;5078584;28;20024;-58
2023/11/26 07:01:05;;;;;;;20.05;7.18;;;;;;;12.84;49.60;101374.25;5095867;28;20028;-58
2023/11/26 07:03:32;;;;;;;14.27;6.65;;;;;;;12.83;49.75;101370.69;5077481;28;20036;-58
2023/11/26 07:05:58;;;;;;;16.08;7.90;;;;;;;12.85;50.05;101365.19;5077727;28;20032;-58
2023/11/26 07:08:24;;;;;;;21.88;7.93;;;;;;;12.88;50.58;101370.31;5095776;28;20107;-57
2023/11/26 07:10:49;;;;;;;19.27;6.70;;;;;;;12.90;50.65;101367.50;5095743;28;20119;-58
2023/11/26 07:13:16;;;;;;;17.67;7.03;;;;;;;12.89;50.26;101361.25;5095821;28;20499;-58
2023/11/26 07:15:41;;;;;;;21.55;7.80;;;;;;;12.91;50.23;101364.66;5078023;28;20074;-58
2023/11/26 07:18:07;;;;;;;16.63;7.93;;;;;;;12.92;49.67;101370.91;5095632;28;20087;-57
2023/11/26 07:20:32;;;;;;;19.25;7.55;;;;;;;12.91;49.92;101367.34;5094039;28;20032;-58
2023/11/26 07:22:58;;;;;;;20.48;7.75;;;;;;;12.92;50.04;101358.31;5076855;28;20119;-58
2023/11/26 07:25:23;;;;;;;15.52;5.97;;;;;;;12.94;50.91;101367.09;5095431;28;20507;-58
2023/11/26 07:27:48;;;;;;;12.00;5.78;;;;;;;12.97;50.09;101364.16;5077133;28;20040;-58
2023/11/26 07:30:14;;;;;;;16.27;6.32;;;;;;;12.99;49.69;101370.22;5077228;28;20048;-57
2023/11/26 07:32:43;;;;;;;19.60;7.25;;;;;;;12.98;51.07;101365.81;5095179;28;20097;-57
2023/11/26 07:35:08;;;;;;;11.57;6.22;;;;;;;13.01;50.60;101370.94;5092021;28;20042;-57
2023/11/26 07:37:34;;;;;;;14.65;6.18;;;;;;;13.02;50.37;101367.28;5077002;28;20028;-57
2023/11/26 07:39:59;;;;;;;20.95;6.35;;;;;;;13.07;50.20;101374.94;5076614;28;20028;-58
2023/11/26 07:42:24;;;;;;;12.75;6.13;;;;;;;13.08;50.75;101377.56;5060007;28;20064;-57
2023/11/26 07:44:50;;;;;;;23.25;7.35;;;;;;;13.10;50.36;101372.03;5094891;28;20448;-58
2023/11/26 07:47:15;;;;;;;14.90;6.47;;;;;;;13.12;50.16;101384.34;5076754;28;20028;-58
2023/11/26 07:49:41;;;;;;;13.63;6.25;;;;;;;13.15;51.07;101386.78;5076786;28;20036;-58
2023/11/26 07:52:07;;;;;;;15.88;6.65;;;;;;;13.19;51.08;101388.25;5076526;28;20032;-58
2023/11/26 07:54:33;;;;;;;17.13;6.82;;;;;;;13.22;49.55;101384.44;5059968;28;20035;-58
2023/11/26 07:56:59;;;;;;;14.93;6.53;;;;;;;13.24;49.62;101380.63;5073774;28;20032;-58
2023/11/26 07:59:25;;;;;;;13.27;5.47;;;;;;;13.26;50.88;101377.81;5075931;28;20089;-57
2023/11/26 08:01:51;;;;;;;11.98;6.32;;;;;;;13.29;50.87;101381.06;5093904;28;20039;-58
2023/11/26 08:04:17;;;;;;;14.52;6.55;;;;;;;13.30;50.91;101372.03;5093825;28;20111;-58
2023/11/26 08:06:47;;;;;;;12.80;6.28;;;;;;;13.35;50.09;101375.16;5059033;28;20440;-58
2023/11/26 08:09:14;;;;;;;12.63;6.07;;;;;;;13.36;50.63;101370.63;5059535;28;20042;-57
2023/11/26 08:11:45;;;;;;;18.90;7.85;;;;;;;13.41;50.89;101382.69;5076683;28;20043;-57
2023/11/26 08:14:12;;;;;;;15.90;6.05;;;;;;;13.42;50.43;101380.88;5094357;28;20044;-58
2023/11/26 08:16:39;;;;;;;13.30;6.15;;;;;;;13.46;50.50;101382.28;5076496;28;20115;-58
2023/11/26 08:19:11;;;;;;;17.50;7.65;;;;;;;13.47;50.09;101373.25;5059364;28;20144;-57
2023/11/26 08:21:37;;;;;;;24.42;7.78;;;;;;;13.55;51.16;101381.50;5060028;28;20039;-57
2023/11/26 08:24:07;;;;;;;15.32;5.40;;;;;;;13.61;50.38;101380.97;5076011;28;20036;-58
2023/11/26 08:26:35;;;;;;;13.45;6.63;;;;;;;13.63;49.59;101375.41;5076455;28;20056;-58
2023/11/26 08:29:01;;;;;;;15.45;6.10;;;;;;;13.74;50.02;101386.09;5076422;28;20040;-58
2023/11/26 08:31:28;;;;;;;17.60;5.75;;;;;;;13.78;50.73;101382.16;5093382;28;20039;-59
2023/11/26 08:33:55;;;;;;;16.23;5.95;;;;;;;13.81;51.02;101387.28;5093799;28;20040;-59
2023/11/26 08:36:20;;;;;;;13.63;5.30;;;;;;;13.82;50.17;101388.94;5059101;28;20111;-59
2023/11/26 08:38:48;;;;;;;15.52;6.18;;;;;;;13.83;49.83;101390.66;5093966;28;20465;-57
2023/11/26 08:41:14;;;;;;;18.17;5.90;;;;;;;13.84;49.42;101385.16;5076097;28;20111;-58
2023/11/26 08:43:41;;;;;;;15.98;6.03;;;;;;;13.84;50.88;101385.16;5075437;28;20499;-57
2023/11/26 08:46:08;;;;;;;9.18;5.78;;;;;;;13.79;50.57;101387.38;5093667;28;20036;-57
2023/11/26 08:48:36;;;;;;;11.57;4.97;;;;;;;13.78;50.02;101395.63;5075540;28;20384;-57
2023/11/26 08:51:02;;;;;;;10.10;4.93;;;;;;;13.79;50.56;101397.34;5093674;28;20051;-60
2023/11/26 08:53:27;;;;;;;10.48;4.35;;;;;;;13.81;51.24;101392.66;5058596;28;20496;-57
2023/11/26 08:55:52;;;;;;;10.70;4.82;;;;;;;13.82;50.76;101392.50;5093640;28;20161;-58
2023/11/26 08:58:18;;;;;;;10.45;4.85;;;;;;;13.87;50.94;101389.41;5058704;28;20040;-57
2023/11/26 09:00:43;;;;;;;8.90;5.18;;;;;;;13.92;49.98;101395.25;5094129;28;20031;-58
2023/11/26 09:03:08;;;;;;;12.13;4.75;;;;;;;13.95;50.83;101392.28;5077497;28;20024;-59
2023/11/26 09:05:34;;;;;;;14.95;4.75;;;;;;;13.96;49.72;101397.50;5080453;28;20032;-58
2023/11/26 09:08:00;;;;;;;11.27;4.60;;;;;;;14.00;49.89;101390.03;5097248;28;20050;-58
2023/11/26 09:10:25;;;;;;;10.23;4.47;;;;;;;14.03;50.18;101384.38;5096146;28;20105;-57
2023/11/26 09:12:51;;;;;;;11.13;4.68;;;;;;;14.03;49.86;101384.38;5058666;28;20492;-58
2023/11/26 09:15:16;;;;;;;16.48;4.85;;;;;;;14.09;50.01;101378.44;5075181;28;20115;-59
2023/11/26 09:17:42;;;;;;;9.68;4.63;;;;;;;14.15;51.38;101380.56;5075341;28;20024;-57
2023/11/26 09:20:15;;;;;;;20.58;5.97;;;;;;;14.21;51.40;101374.59;5058110;28;20380;-57
2023/11/26 09:22:40;;;;;;;12.32;5.07;;;;;;;14.26;50.56;101368.81;5075142;28;20032;-58
2023/11/26 09:25:13;;;;;;;14.45;5.03;;;;;;;14.33;49.79;101372.66;5075049;28;20047;-58
2023/11/26 09:27:38;;;;;;;12.60;5.25;;;;;;;14.38;50.63;101371.25;5075279;28;20036;-58
2023/11/26 09:30:04;;;;;;;11.25;5.55;;;;;;;14.43;50.18;101371.69;5074912;28;20024;-58
2023/11/26 09:32:31;;;;;;;8.82;5.22;;;;;;;14.51;49.77;101371.84;5074796;28;20012;-58
2023/11/26 09:34:56;;;;;;;10.98;5.28;;;;;;;14.56;49.73;101369.59;5075189;28;20012;-58
2023/11/26 09:37:22;;;;;;;19.45;5.45;;;;;;;14.62;50.31;101372.69;5093103;28;20479;-59
2023/11/26 09:39:48;;;;;;;9.02;4.82;;;;;;;14.68;49.89;101377.53;5092842;28;20052;-58
2023/11/26 09:42:13;;;;;;;10.80;4.75;;;;;;;14.70;49.88;101370.16;5092693;28;20028;-58
2023/11/26 09:44:44;;;;;;;8.52;5.03;;;;;;;14.75;50.11;101373.25;5077311;28;20091;-58
2023/11/26 09:47:10;;;;;;;10.52;5.07;;;;;;;14.76;50.63;101374.97;5079431;28;20101;-58
2023/11/26 09:49:36;;;;;;;12.90;5.22;;;;;;;14.83;50.02;101382.34;5079091;28;20051;-58
2023/11/26 09:52:02;;;;;;;9.70;4.97;;;;;;;14.87;49.63;101378.38;5096895;28;20052;-58
2023/11/26 09:54:28;;;;;;;6.28;3.78;;;;;;;14.90;50.18;101371.84;5078729;28;20079;-58
2023/11/26 09:57:02;;;;;;;9.55;4.90;;;;;;;14.92;49.31;101375.22;5078734;28;20471;-58
2023/11/26 09:59:33;;;;;;;8.48;3.72;;;;;;;14.94;49.62;101378.63;5079758;28;20375;-57
2023/11/26 10:01:59;;;;;;;9.00;4.07;;;;;;;14.97;49.20;101367.56;5078698;28;20028;-57
2023/11/26 10:04:24;;;;;;;6.43;4.05;;;;;;;14.99;50.04;101376.38;5078650;28;20492;-57
2023/11/26 10:06:54;;;;;;;7.47;3.10;;;;;;;15.02;49.90;101365.28;5078712;28;20038;-58
2023/11/26 10:09:20;;;;;;;9.38;4.00;;;;;;;15.03;50.48;101370.53;5096978;28;20098;-57
2023/11/26 10:11:46;;;;;;;11.52;4.35;;;;;;;15.05;49.19;101373.06;5096528;28;20111;-57
2023/11/26 10:14:19;;;;;;;9.55;4.32;;;;;;;15.00;49.29;101365.44;5096547;28;20048;-58
2023/11/26 10:16:45;;;;;;;16.75;3.85;;;;;;;14.99;49.55;101368.28;5078463;28;20511;-58
2023/11/26 10:19:37;;;;;;;13.57;4.25;;;;;;;15.01;51.00;101363.59;5061626;28;20024;-57
2023/11/26 10:22:03;;;;;;;9.55;3.20;;;;;;;15.01;50.54;101358.19;5092527;28;20032;-56
2023/11/26 10:24:30;;;;;;;5.70;3.80;;;;;;;15.02;50.75;101354.47;5078084;28;20031;-57
2023/11/26 10:26:58;;;;;;;9.15;3.22;;;;;;;15.02;50.39;101357.19;5078476;28;20032;-57
2023/11/26 10:29:30;;;;;;;9.63;2.85;;;;;;;14.99;50.96;101354.78;5078236;28;20058;-58
2023/11/26 10:32:01;;;;;;;6.72;2.88;;;;;;;14.97;49.57;101356.75;5078818;28;20522;-60
2023/11/26 10:34:28;;;;;;;8.02;3.22;;;;;;;14.96;49.82;101352.38;5078170;28;20432;-60
2023/11/26 10:36:54;;;;;;;8.20;3.60;;;;;;;14.97;51.00;101354.06;5077834;28;20081;-58
2023/11/26 10:39:19;;;;;;;10.38;3.97;;;;;;;14.96;49.74;101349.69;5077959;28;20028;-59
2023/11/26 10:41:47;;;;;;;10.25;3.38;;;;;;;14.93;50.67;101339.19;5077819;28;20090;-57
2023/11/26 10:44:13;;;;;;;7.78;2.72;;;;;;;14.97;50.83;101346.81;5078386;28;20090;-58
2023/11/26 10:46:41;;;;;;;7.10;3.75;;;;;;;14.96;49.62;101338.91;5078068;28;20028;-57
2023/11/26 10:49:36;;;;;;;8.77;4.38;;;;;;;14.97;49.78;101345.97;5078110;28;20038;-58
2023/11/26 10:52:04;;;;;;;5.97;4.00;;;;;;;14.97;49.44;101351.38;5061086;28;20557;-58
2023/11/26 10:54:33;;;;;;;8.30;4.53;;;;;;;14.93;49.95;101344.56;5077127;28;20136;-58
2023/11/26 10:57:08;;;;;;;8.57;4.40;;;;;;;14.88;49.71;101341.47;5077618;28;20031;-58
2023/11/26 10:59:36;;;;;;;8.00;4.13;;;;;;;14.86;49.82;101338.03;5077115;28;20051;-57
2023/11/26 11:02:03;;;;;;;7.47;4.05;;;;;;;14.87;51.05;101340.63;5060682;28;20054;-57
2023/11/26 11:04:29;;;;;;;7.18;3.92;;;;;;;14.86;50.62;101338.03;5077680;28;20020;-58
2023/11/26 11:06:57;;;;;;;6.50;4.05;;;;;;;14.86;51.19;101346.13;5077572;28;20574;-60
2023/11/26 11:09:30;;;;;;;11.65;4.72;;;;;;;14.85;50.95;101344.44;5060727;28;20540;-60
2023/11/26 11:12:03;;;;;;;9.82;4.65;;;;;;;14.87;50.86;101337.06;5077369;28;20028;-57
2023/11/26 11:14:29;;;;;;;;;;;;;;;14.87;50.62;101340.63;5077824;28;20487;-58
2023/11/26 11:16:55;;;;;;;5.72;3.40;;;;;;;14.90;49.73;101343.03;5077524;28;19923;-59
2023/11/26 11:19:55;;;;;;;8.98;4.32;;;;;;;14.93;50.52;101344.56;5077704;28;20115;-59
2023/11/26 11:22:35;;;;;;;12.20;4.10;;;;;;;14.93;49.92;101344.56;5061388;28;20032;-61